Last 7 Days

Gordon Valley 3 (GV3)

Hourly Data | America/Los_Angeles
as of 12/9/18 2:23 PM PST
Date Time Temp (°F) RH (%) Dew Pt (°F) Wind Spd (mph) Wind Dir (°) Wind Gust (mph) Wind Gst Dir (°) Latest Rain (In) Solar Rad Tot Hr (Cal/cm2) Daily Rain (In) Daily Min Temp (°F) Daily Max Temp (°F) Day
12/9/18 1400 48.4 82 43.1 3.3 E | 93 6.6 E | 100 0.00 8 0.00 36.7 49.2 12/9/18
12/9/18 1300 48.1 82 42.9 3.5 ESE | 106 8.6 ESE | 117 0.00 6 0.00 36.7 48.8 12/9/18
12/9/18 1200 48.3 82 43.2 3.6 E | 93 8.0 E | 80 0.00 9 0.00 36.7 48.8 12/9/18
12/9/18 1100 47.2 86 43.4 2.9 E | 81 9.5 E | 95 0.00 6 0.00 36.7 47.9 12/9/18
12/9/18 1000 45.0 90 42.4 0.5 WNW | 287 2.6 W | 275 0.00 4 0.00 36.7 46.3 12/9/18
12/9/18 0900 43.4 91 40.9 0.7 NNW | 347 3.9 N | 353 0.00 3 0.00 36.7 44.4 12/9/18
12/9/18 0800 42.2 91 39.8 2.2 N | 359 4.1 NNW | 338 0.00 1 0.00 36.7 42.8 12/9/18
12/9/18 0700 41.4 91 39.1 0.9 N | 9 2.6 N | 0 0.00 0 0.00 36.7 42.0 12/9/18
12/9/18 0600 40.7 91 38.3 0.3 NE | 46 2.4 NNE | 17 0.00 0 0.00 36.7 41.2 12/9/18
12/9/18 0500 39.6 91 37.3 0.6 ENE | 61 2.7 NE | 47 0.00 0 0.00 36.7 40.2 12/9/18
12/9/18 0400 38.6 91 36.3 0.7 ENE | 72 2.4 ENE | 78 0.00 0 0.00 36.7 39.3 12/9/18
12/9/18 0300 37.4 91 34.9 0.8 ENE | 66 2.6 NE | 42 0.00 0 0.00 36.7 39.0 12/9/18
12/9/18 0200 37.2 90 34.4 1.2 SW | 229 3.8 WSW | 238 0.00 0 0.00 36.7 39.0 12/9/18
12/9/18 0100 38.2 88 35.1 1.6 SE | 142 5.3 SSE | 163 0.00 0 0.00 37.6 39.0 12/9/18
12/9/18 0000 40.6 88 37.2 2.2 NE | 49 4.3 NE | 49 0.00 0 0.00 34.8 61.2 12/8/18
12/8/18 2300 39.6 89 36.6 2.1 NE | 47 4.1 NNE | 27 0.00 0 0.00 34.8 61.2 12/8/18
12/8/18 2200 40.0 89 37.0 1.6 ENE | 61 4.3 NE | 56 0.00 0 0.00 34.8 61.2 12/8/18
12/8/18 2100 39.7 88 36.5 1.2 NE | 41 2.6 NE | 38 0.00 0 0.00 34.8 61.2 12/8/18
12/8/18 2000 41.5 86 37.7 0.4 NE | 47 2.9 NE | 41 0.00 0 0.00 34.8 61.2 12/8/18
12/8/18 1900 45.5 79 39.4 0.7 NE | 55 2.9 SSE | 168 0.00 0 0.00 34.8 61.2 12/8/18
12/8/18 1800 52.4 66 41.5 2.7 SSE | 154 4.6 ESE | 122 0.00 0 0.00 34.8 61.2 12/8/18
12/8/18 1700 57.1 57 42.1 3.4 ESE | 118 7.3 ESE | 110 0.00 3 0.00 34.8 61.2 12/8/18
12/8/18 1600 60.3 52 42.6 4.1 E | 89 6.9 ESE | 113 0.00 16 0.00 34.8 61.2 12/8/18
12/8/18 1500 60.7 51 42.3 4.9 E | 84 8.6 E | 84 0.00 28 0.00 34.8 61.2 12/8/18
12/8/18 1400 60.4 51 42.4 5.7 E | 86 10.0 ENE | 78 0.00 37 0.00 34.8 61.1 12/8/18
12/8/18 1300 59.7 53 42.8 4.3 E | 80 10.0 E | 89 0.00 42 0.00 34.8 61.1 12/8/18
12/8/18 1200 57.1 61 43.8 2.4 SW | 224 5.1 SW | 230 0.00 43 0.00 34.8 59.3 12/8/18
12/8/18 1100 54.1 68 43.6 2.7 SSW | 203 5.1 SSW | 208 0.00 38 0.00 34.8 55.7 12/8/18
12/8/18 1000 49.7 74 41.9 2.1 S | 190 3.9 SW | 224 0.00 28 0.00 34.8 52.4 12/8/18
12/8/18 0900 45.2 83 40.3 0.6 ESE | 120 2.7 ENE | 66 0.00 15 0.00 34.8 49.6 12/8/18
12/8/18 0800 39.6 88 36.4 1.3 ENE | 66 3.3 NNE | 25 0.00 2 0.00 34.8 41.8 12/8/18
12/8/18 0700 41.0 89 37.9 3.1 NNE | 25 8.0 NNE | 16 0.00 0 0.00 34.8 41.8 12/8/18
12/8/18 0600 38.4 90 35.8 1.4 NE | 56 3.8 ENE | 65 0.00 0 0.00 34.8 40.4 12/8/18
12/8/18 0500 36.9 90 34.3 1.3 NE | 47 3.9 ENE | 77 0.00 0 0.00 34.8 40.4 12/8/18
12/8/18 0400 36.1 90 33.4 1.0 NE | 50 3.1 NE | 34 0.00 0 0.00 34.8 40.4 12/8/18
12/8/18 0300 36.6 89 33.7 0.6 NE | 53 2.6 ENE | 72 0.00 0 0.00 35.6 40.4 12/8/18
12/8/18 0200 37.8 89 34.8 1.0 NE | 49 3.3 ENE | 77 0.00 0 0.00 36.9 40.4 12/8/18
12/8/18 0100 39.6 89 36.5 1.3 NE | 56 3.3 ENE | 67 0.00 0 0.00 38.6 40.4 12/8/18
12/8/18 0000 39.8 88 36.5 1.7 NE | 49 3.4 NE | 41 0.00 0 0.00 37.1 62.8 12/7/18
12/7/18 2300 40.3 88 37.1 2.0 ENE | 57 4.4 ENE | 76 0.00 0 0.00 37.1 62.8 12/7/18
12/7/18 2200 40.8 88 37.5 1.1 NE | 46 3.1 N | 0 0.00 0 0.00 37.1 62.8 12/7/18
12/7/18 2100 41.3 88 37.9 1.6 NE | 52 4.6 ENE | 67 0.00 0 0.00 37.1 62.8 12/7/18
12/7/18 2000 42.6 86 38.8 1.2 NE | 46 2.9 ENE | 67 0.00 0 0.00 37.1 62.8 12/7/18
12/7/18 1900 45.2 83 40.3 0.8 NE | 38 2.4 - 0.00 0 0.00 37.1 62.8 12/7/18
12/7/18 1800 48.9 76 41.7 0.7 NE | 42 3.1 ENE | 76 0.00 0 0.00 37.1 62.8 12/7/18
12/7/18 1700 57.4 58 42.5 1.4 S | 169 3.9 SE | 143 0.00 3 0.00 37.1 62.8 12/7/18
12/7/18 1600 61.8 47 41.6 2.6 S | 177 6.1 SSW | 196 0.00 16 0.00 37.1 62.8 12/7/18
12/7/18 1500 62.1 47 41.6 4.0 S | 187 8.1 S | 169 0.00 29 0.00 37.1 62.8 12/7/18
12/7/18 1400 61.5 49 42.0 3.5 SE | 137 8.4 SW | 221 0.00 39 0.00 37.1 62.6 12/7/18
12/7/18 1300 59.0 57 43.6 4.9 SW | 219 8.4 SSW | 196 0.00 44 0.00 37.1 60.8 12/7/18
12/7/18 1200 56.5 61 43.1 2.7 SSW | 212 7.3 S | 187 0.00 45 0.00 37.1 58.6 12/7/18
12/7/18 1100 52.3 68 41.9 2.2 S | 186 4.8 S | 190 0.00 33 0.00 37.1 54.3 12/7/18
12/7/18 1000 48.4 75 40.8 2.2 S | 183 4.3 S | 172 0.00 27 0.00 37.1 51.2 12/7/18
12/7/18 0900 43.0 85 38.9 0.9 SSW | 203 3.8 SSW | 212 0.00 11 0.00 37.1 45.8 12/7/18
12/7/18 0800 38.3 87 34.9 0.7 ENE | 57 3.3 ENE | 67 0.00 4 0.00 37.1 42.1 12/7/18
12/7/18 0700 39.3 86 35.5 1.3 NE | 42 3.6 NE | 40 0.00 0 0.00 37.1 42.1 12/7/18
12/7/18 0600 39.4 87 35.8 1.4 NE | 55 4.3 NE | 56 0.00 0 0.00 37.1 42.1 12/7/18
12/7/18 0500 40.3 86 36.3 2.2 NE | 56 4.3 ENE | 62 0.00 0 0.00 37.1 42.1 12/7/18
12/7/18 0400 39.4 88 36.0 2.5 ENE | 58 4.9 NE | 42 0.00 0 0.00 37.1 42.1 12/7/18
12/7/18 0300 38.4 89 35.3 1.2 ENE | 58 3.4 ENE | 75 0.00 0 0.00 37.1 42.1 12/7/18
12/7/18 0200 38.9 88 35.6 1.2 NE | 39 3.6 NE | 54 0.00 0 0.00 37.1 42.1 12/7/18
12/7/18 0100 39.8 86 36.1 1.1 NE | 50 3.8 NE | 56 0.00 0 0.00 38.7 42.1 12/7/18
12/7/18 0000 40.8 87 37.2 2.0 NE | 55 3.9 ENE | 74 0.00 0 0.00 39.5 65.5 12/6/18
12/6/18 2300 40.2 87 36.7 1.4 NE | 42 2.9 NE | 40 0.00 0 0.00 39.5 65.5 12/6/18
12/6/18 2200 42.2 85 37.9 1.5 NE | 50 3.4 NE | 48 0.00 0 0.00 40.6 65.5 12/6/18
12/6/18 2100 42.7 86 38.9 1.4 NE | 37 4.4 N | 0 0.00 0 0.00 41.2 65.5 12/6/18
12/6/18 2000 43.0 86 39.1 0.8 NE | 39 2.6 NE | 44 0.00 0 0.00 41.2 65.5 12/6/18
12/6/18 1900 45.4 82 40.3 0.3 NE | 45 2.1 NNW | 341 0.00 0 0.00 41.2 65.5 12/6/18
12/6/18 1800 50.2 73 41.7 0.6 NNE | 25 2.4 N | 354 0.00 0 0.00 41.2 65.5 12/6/18
12/6/18 1700 58.8 51 40.4 2.2 SE | 125 5.3 E | 80 0.00 3 0.00 41.2 65.5 12/6/18
12/6/18 1600 63.7 42 40.0 2.8 SE | 145 7.8 S | 175 0.00 16 0.00 41.2 65.5 12/6/18
12/6/18 1500 65.0 40 40.1 2.3 SW | 218 9.1 S | 185 0.00 29 0.00 41.2 65.5 12/6/18
12/6/18 1400 64.1 41 40.2 2.3 SSW | 213 6.6 SSE | 168 0.00 38 0.00 41.2 64.9 12/6/18
12/6/18 1300 63.1 44 40.9 2.5 SE | 137 6.8 ESE | 110 0.00 43 0.00 41.2 64.3 12/6/18
12/6/18 1200 61.9 46 41.2 1.9 SSW | 212 6.1 SSE | 167 0.00 43 0.00 41.2 64.3 12/6/18
12/6/18 1100 60.0 49 40.8 3.3 SW | 217 6.9 S | 172 0.00 38 0.00 41.2 61.7 12/6/18
12/6/18 1000 57.1 50 38.4 3.6 N | 358 9.5 NNE | 27 0.00 29 0.00 41.2 58.8 12/6/18
12/6/18 0900 51.2 68 40.8 0.7 NE | 41 6.1 - 0.00 16 0.00 41.2 55.2 12/6/18
12/6/18 0800 42.9 88 39.5 0.6 ENE | 75 2.9 NW | 326 0.00 3 0.00 41.2 50.2 12/6/18
12/6/18 0700 43.4 87 39.7 0.7 E | 89 2.9 NE | 53 0.00 0 0.00 41.2 50.2 12/6/18
12/6/18 0600 42.4 88 39.0 1.4 NE | 53 3.6 ENE | 76 0.00 0 0.00 41.2 50.2 12/6/18
12/6/18 0500 43.9 86 40.1 0.2 E | 84 2.1 E | 83 0.00 0 0.00 42.8 50.2 12/6/18
12/6/18 0400 44.2 84 39.7 0.4 NE | 38 2.4 ENE | 77 0.00 0 0.00 43.5 50.2 12/6/18
12/6/18 0300 46.4 79 40.3 0.7 SSE | 165 3.4 SSE | 160 0.00 0 0.00 45.6 50.2 12/6/18
12/6/18 0200 48.5 73 40.2 2.1 SW | 218 5.1 SSW | 206 0.00 0 0.00 46.3 50.2 12/6/18
12/6/18 0100 48.3 74 40.4 1.5 ESE | 123 3.9 NW | 323 0.00 0 0.00 46.3 50.0 12/6/18
12/6/18 0000 45.3 83 40.5 1.3 SE | 141 3.4 SE | 146 0.00 0 0.20 40.7 57.0 12/5/18
12/5/18 2300 42.9 88 39.7 0.6 ENE | 62 3.1 NNE | 28 0.00 0 0.20 40.7 57.0 12/5/18
12/5/18 2200 41.4 88 38.2 1.4 NE | 51 4.1 ENE | 68 0.00 0 0.20 40.7 57.0 12/5/18
12/5/18 2100 43.4 85 39.2 0.8 NE | 51 3.6 NE | 55 0.00 0 0.20 41.7 57.0 12/5/18
12/5/18 2000 44.9 84 40.4 1.6 NE | 46 3.4 NE | 46 0.00 0 0.20 43.8 57.0 12/5/18
12/5/18 1900 45.5 84 41.0 1.2 NE | 43 3.3 NNE | 22 0.00 0 0.20 44.4 57.0 12/5/18
12/5/18 1800 48.8 76 41.5 1.1 NNE | 22 4.8 NE | 45 0.00 0 0.20 46.6 57.0 12/5/18
12/5/18 1700 53.2 66 42.1 1.5 NNW | 333 6.3 NE | 36 0.00 1 0.20 46.6 57.0 12/5/18
12/5/18 1600 55.3 62 42.5 3.1 N | 356 9.0 N | 354 0.00 6 0.20 46.6 57.0 12/5/18
12/5/18 1500 55.5 64 43.7 4.6 N | 5 9.8 N | 0 0.00 14 0.20 46.6 57.0 12/5/18
12/5/18 1400 55.1 63 42.7 6.9 NNE | 27 12.5 NNE | 24 0.00 14 0.20 46.6 57.0 12/5/18
12/5/18 1300 56.0 62 43.2 6.2 NNE | 28 14.8 N | 0 0.00 23 0.20 46.6 57.0 12/5/18
12/5/18 1200 54.5 66 43.4 5.8 NNE | 12 14.0 N | 4 0.00 19 0.20 46.6 55.4 12/5/18
12/5/18 1100 52.5 70 43.2 3.5 NNW | 342 8.0 NNW | 347 0.00 9 0.20 46.6 54.7 12/5/18
12/5/18 1000 52.1 70 42.5 6.2 N | 359 11.0 N | 353 0.00 7 0.20 46.6 54.7 12/5/18
12/5/18 0900 50.7 74 42.7 7.7 N | 3 13.0 N | 352 0.00 6 0.20 46.6 54.7 12/5/18
12/5/18 0800 49.6 77 42.6 6.8 N | 8 12.6 NNE | 24 0.01 1 0.20 46.6 54.7 12/5/18
12/5/18 0700 50.1 74 42.1 3.4 NNE | 17 12.5 N | 0 0.00 0 0.19 46.6 54.7 12/5/18
12/5/18 0600 49.7 75 42.2 4.8 NE | 55 13.6 ENE | 58 0.00 0 0.19 46.6 54.7 12/5/18
12/5/18 0500 47.3 85 43.1 3.1 NNE | 12 10.3 E | 82 0.01 0 0.19 46.6 54.7 12/5/18
12/5/18 0400 47.9 82 42.7 3.7 NNW | 348 8.8 NNE | 15 0.03 0 0.18 47.0 54.7 12/5/18
12/5/18 0300 47.8 84 43.1 3.0 N | 5 6.8 NW | 325 0.09 0 0.15 47.0 54.7 12/5/18
12/5/18 0200 51.0 69 41.1 5.7 E | 87 12.0 E | 100 0.06 0 0.06 48.7 54.7 12/5/18
12/5/18 0100 53.4 51 35.6 5.8 E | 86 13.2 ESE | 117 0.00 0 0.00 51.9 54.7 12/5/18
12/5/18 0000 53.1 48 34.0 3.0 ESE | 112 10.8 ESE | 112 0.00 0 0.00 48.1 56.0 12/4/18
12/4/18 2300 52.0 52 35.0 2.0 W | 279 5.9 NE | 36 0.00 0 0.00 48.1 56.0 12/4/18
12/4/18 2200 53.5 47 33.6 2.9 N | 359 6.8 NNW | 338 0.00 0 0.00 48.1 56.0 12/4/18
12/4/18 2100 52.1 52 34.8 2.1 NNW | 336 6.3 NNE | 13 0.00 0 0.00 48.1 56.0 12/4/18
12/4/18 2000 51.6 55 35.8 2.9 N | 3 8.1 NNW | 342 0.00 0 0.00 48.1 56.0 12/4/18
12/4/18 1900 49.0 66 38.1 1.8 SE | 129 4.4 NW | 317 0.00 0 0.00 48.1 56.0 12/4/18
12/4/18 1800 51.0 58 36.9 1.2 WNW | 283 3.6 NW | 320 0.00 0 0.00 49.5 56.0 12/4/18
12/4/18 1700 53.2 52 36.1 2.1 ENE | 65 8.1 NE | 52 0.00 1 0.00 50.0 56.0 12/4/18
12/4/18 1600 54.4 52 37.0 3.6 SE | 133 8.8 E | 96 0.00 4 0.00 50.0 56.0 12/4/18
12/4/18 1500 54.6 49 35.7 4.2 NNE | 32 9.5 NNE | 32 0.00 5 0.00 50.0 56.0 12/4/18
12/4/18 1400 55.0 46 34.3 5.4 ENE | 57 12.0 ENE | 68 0.00 13 0.00 50.0 56.0 12/4/18
12/4/18 1300 55.1 45 34.1 4.7 E | 83 9.8 E | 84 0.00 11 0.00 50.0 56.0 12/4/18
12/4/18 1200 55.2 45 34.4 5.1 ENE | 65 11.5 NE | 39 0.00 15 0.00 50.0 56.0 12/4/18
12/4/18 1100 54.7 47 35.0 4.0 ENE | 62 11.5 ENE | 64 0.00 11 0.00 50.0 55.4 12/4/18
12/4/18 1000 53.5 47 33.9 4.2 ENE | 66 8.4 N | 11 0.00 7 0.00 50.0 54.0 12/4/18
12/4/18 0900 52.0 48 32.7 3.2 ENE | 70 9.1 NNE | 32 0.00 4 0.00 50.0 53.6 12/4/18
12/4/18 0800 51.5 44 30.3 2.8 ENE | 70 11.3 ENE | 62 0.00 1 0.00 50.2 53.5 12/4/18
12/4/18 0700 52.1 41 29.3 3.3 NE | 49 10.1 NE | 52 0.00 0 0.00 50.4 53.5 12/4/18
12/4/18 0600 52.0 41 28.7 4.4 ENE | 78 11.6 ENE | 69 0.00 0 0.00 50.4 53.5 12/4/18
12/4/18 0500 52.4 40 28.7 3.2 E | 98 7.8 NE | 52 0.00 0 0.00 50.4 53.5 12/4/18
12/4/18 0400 52.4 39 27.9 5.4 NE | 38 12.1 NNE | 16 0.00 0 0.00 50.4 53.5 12/4/18
12/4/18 0300 51.6 37 25.9 2.9 E | 87 6.9 ESE | 118 0.00 0 0.00 50.4 53.0 12/4/18
12/4/18 0200 52.2 35 25.6 5.7 NNE | 27 14.8 NNE | 27 0.00 0 0.00 50.9 53.0 12/4/18
12/4/18 0100 51.8 35 25.0 5.2 ENE | 65 13.8 NNE | 18 0.00 0 0.00 50.9 52.5 12/4/18
12/4/18 0000 51.4 38 26.3 3.1 ENE | 60 13.3 NNE | 26 0.00 0 0.00 30.9 56.5 12/3/18
12/3/18 2300 50.6 40 27.5 5.8 NNE | 19 13.2 NE | 43 0.00 0 0.00 30.9 56.5 12/3/18
12/3/18 2200 49.5 48 30.2 4.6 NE | 40 12.0 ENE | 57 0.00 0 0.00 30.9 56.5 12/3/18
12/3/18 2100 47.0 65 35.6 1.0 N | 359 3.9 E | 89 0.00 0 0.00 30.9 56.5 12/3/18
12/3/18 2000 47.2 62 34.9 0.7 WNW | 285 4.3 E | 82 0.00 0 0.00 30.9 56.5 12/3/18
12/3/18 1900 47.5 61 34.6 1.3 NE | 49 4.9 E | 98 0.00 0 0.00 30.9 56.5 12/3/18
12/3/18 1800 49.1 54 33.2 1.6 ESE | 122 4.9 SSE | 148 0.00 0 0.00 30.9 56.5 12/3/18
12/3/18 1700 50.9 50 32.9 3.7 ENE | 66 8.1 ENE | 57 0.00 1 0.00 30.9 56.5 12/3/18
12/3/18 1600 52.5 47 32.8 4.4 ENE | 64 9.3 ENE | 64 0.00 8 0.00 30.9 56.5 12/3/18
12/3/18 1500 54.3 45 33.2 5.9 NE | 46 11.6 NE | 34 0.00 19 0.00 30.9 56.5 12/3/18
12/3/18 1400 55.5 44 33.8 6.1 ENE | 71 10.6 E | 93 0.00 32 0.00 30.9 56.5 12/3/18
12/3/18 1300 55.0 44 33.7 6.2 E | 80 11.3 ENE | 63 0.00 37 0.00 30.9 56.2 12/3/18
12/3/18 1200 54.1 45 33.2 6.0 ENE | 72 10.5 ENE | 66 0.00 35 0.00 30.9 54.8 12/3/18
12/3/18 1100 52.5 50 34.5 4.2 NE | 49 11.1 N | 7 0.00 40 0.00 30.9 54.3 12/3/18
12/3/18 1000 44.7 78 38.1 1.8 SSW | 204 4.4 S | 189 0.00 24 0.00 30.9 50.6 12/3/18
12/3/18 0900 39.4 88 36.1 0.8 SW | 217 4.8 SW | 233 0.00 10 0.00 30.9 41.4 12/3/18
12/3/18 0800 35.3 90 32.6 0.7 ESE | 120 2.6 SSE | 161 0.00 4 0.00 30.9 38.8 12/3/18
12/3/18 0700 34.2 89 31.5 0.7 NE | 56 3.9 ENE | 69 0.00 0 0.00 30.9 37.2 12/3/18
12/3/18 0600 34.4 89 31.6 0.5 NW | 318 2.7 SSW | 202 0.00 0 0.00 30.9 37.2 12/3/18
12/3/18 0500 33.0 89 30.1 0.6 NE | 38 3.1 ENE | 70 0.00 0 0.00 30.9 37.2 12/3/18
12/3/18 0400 31.7 88 28.6 0.9 NNE | 28 3.9 NE | 34 0.00 0 0.00 30.9 37.2 12/3/18
12/3/18 0300 33.2 87 29.8 0.9 NNE | 32 4.8 NE | 46 0.00 0 0.00 31.5 37.2 12/3/18
12/3/18 0200 34.1 88 30.9 1.7 NE | 48 4.8 ENE | 73 0.00 0 0.00 33.0 37.2 12/3/18
12/3/18 0100 35.6 87 32.0 1.0 NE | 39 3.4 NNE | 23 0.00 0 0.00 34.4 37.2 12/3/18
12/3/18 0000 37.2 87 33.8 1.5 NE | 48 4.4 ENE | 64 0.00 0 0.00 33.8 58.3 12/2/18
12/2/18 2300 37.8 88 34.8 1.3 ENE | 66 4.3 ENE | 64 0.00 0 0.00 33.8 58.3 12/2/18
12/2/18 2200 37.5 88 34.4 0.9 NNE | 32 2.6 NE | 34 0.00 0 0.00 33.8 58.3 12/2/18
12/2/18 2100 38.4 87 34.9 0.4 NE | 55 2.7 ENE | 67 0.00 0 0.00 33.8 58.3 12/2/18
12/2/18 2000 39.8 86 35.9 1.1 NE | 45 3.3 ENE | 71 0.00 0 0.00 33.8 58.3 12/2/18
12/2/18 1900 41.6 84 37.0 0.7 NE | 39 3.8 ENE | 74 0.00 0 0.00 33.8 58.3 12/2/18
12/2/18 1800 45.8 75 38.2 0.4 NNE | 19 2.6 NNE | 19 0.00 0 0.00 33.8 58.3 12/2/18
12/2/18 1700 52.1 60 38.8 1.8 ENE | 72 6.1 ENE | 71 0.00 2 0.00 33.8 58.3 12/2/18
12/2/18 1600 54.9 55 38.8 4.7 E | 84 8.1 ENE | 70 0.00 12 0.00 33.8 58.3 12/2/18
12/2/18 1500 56.9 49 37.8 4.2 E | 86 8.3 ENE | 73 0.00 31 0.00 33.8 58.3 12/2/18
Tip: Bookmark this page for easy future reference